sensor_id;sensor_type;location;lat;lon;timestamp;P1;durP1;ratioP1;P2;durP2;ratioP2
25049;SDS011;13046;49.814;9.918;2023-05-16T00:00:16;10.10;;;9.27;;
25049;SDS011;13046;49.814;9.918;2023-05-16T00:02:42;11.02;;;9.90;;
25049;SDS011;13046;49.814;9.918;2023-05-16T00:05:08;10.75;;;9.80;;
25049;SDS011;13046;49.814;9.918;2023-05-16T00:07:44;10.30;;;9.40;;
25049;SDS011;13046;49.814;9.918;2023-05-16T00:10:11;10.00;;;9.10;;
25049;SDS011;13046;49.814;9.918;2023-05-16T00:12:38;10.13;;;9.25;;
25049;SDS011;13046;49.814;9.918;2023-05-16T00:15:04;10.75;;;9.70;;
25049;SDS011;13046;49.814;9.918;2023-05-16T00:17:32;11.40;;;10.27;;
25049;SDS011;13046;49.814;9.918;2023-05-16T00:19:59;11.07;;;9.98;;
25049;SDS011;13046;49.814;9.918;2023-05-16T00:22:26;10.95;;;10.05;;
25049;SDS011;13046;49.814;9.918;2023-05-16T00:24:51;11.18;;;10.07;;
25049;SDS011;13046;49.814;9.918;2023-05-16T00:27:17;9.73;;;8.88;;
25049;SDS011;13046;49.814;9.918;2023-05-16T00:29:43;12.73;;;9.77;;
25049;SDS011;13046;49.814;9.918;2023-05-16T00:32:09;11.43;;;10.38;;
25049;SDS011;13046;49.814;9.918;2023-05-16T00:34:35;13.43;;;9.55;;
25049;SDS011;13046;49.814;9.918;2023-05-16T00:37:01;11.02;;;10.02;;
25049;SDS011;13046;49.814;9.918;2023-05-16T00:39:26;11.88;;;10.68;;
25049;SDS011;13046;49.814;9.918;2023-05-16T00:41:55;12.52;;;11.32;;
25049;SDS011;13046;49.814;9.918;2023-05-16T00:44:21;11.50;;;10.15;;
25049;SDS011;13046;49.814;9.918;2023-05-16T00:46:47;11.35;;;10.32;;
25049;SDS011;13046;49.814;9.918;2023-05-16T00:49:13;12.15;;;10.98;;
25049;SDS011;13046;49.814;9.918;2023-05-16T00:51:39;12.02;;;10.98;;
25049;SDS011;13046;49.814;9.918;2023-05-16T00:54:04;11.23;;;10.15;;
25049;SDS011;13046;49.814;9.918;2023-05-16T00:56:31;11.65;;;10.32;;
25049;SDS011;13046;49.814;9.918;2023-05-16T00:58:57;12.02;;;10.88;;
25049;SDS011;13046;49.814;9.918;2023-05-16T01:01:24;12.43;;;11.32;;
25049;SDS011;13046;49.814;9.918;2023-05-16T01:03:51;11.57;;;10.38;;
25049;SDS011;13046;49.814;9.918;2023-05-16T01:06:17;12.82;;;11.82;;
25049;SDS011;13046;49.814;9.918;2023-05-16T01:08:43;12.75;;;11.32;;
25049;SDS011;13046;49.814;9.918;2023-05-16T01:11:20;11.27;;;10.27;;
25049;SDS011;13046;49.814;9.918;2023-05-16T01:16:53;11.27;;;10.18;;
25049;SDS011;13046;49.814;9.918;2023-05-16T01:22:19;14.20;;;12.75;;
25049;SDS011;13046;49.814;9.918;2023-05-16T01:30:17;12.07;;;10.88;;
25049;SDS011;13046;49.814;9.918;2023-05-16T01:32:44;12.48;;;11.38;;
25049;SDS011;13046;49.814;9.918;2023-05-16T01:35:11;12.13;;;11.02;;
25049;SDS011;13046;49.814;9.918;2023-05-16T01:37:40;16.00;;;11.85;;
25049;SDS011;13046;49.814;9.918;2023-05-16T01:40:20;13.10;;;11.82;;
25049;SDS011;13046;49.814;9.918;2023-05-16T01:42:54;14.38;;;12.07;;
25049;SDS011;13046;49.814;9.918;2023-05-16T01:45:25;12.50;;;11.48;;
25049;SDS011;13046;49.814;9.918;2023-05-16T01:50:53;13.27;;;11.90;;
25049;SDS011;13046;49.814;9.918;2023-05-16T01:53:24;13.55;;;12.15;;
25049;SDS011;13046;49.814;9.918;2023-05-16T01:55:56;14.05;;;11.57;;
25049;SDS011;13046;49.814;9.918;2023-05-16T01:58:26;13.00;;;11.75;;
25049;SDS011;13046;49.814;9.918;2023-05-16T02:00:59;14.73;;;11.73;;
25049;SDS011;13046;49.814;9.918;2023-05-16T02:03:31;12.70;;;11.55;;
25049;SDS011;13046;49.814;9.918;2023-05-16T02:05:58;12.93;;;11.57;;
25049;SDS011;13046;49.814;9.918;2023-05-16T02:08:24;12.80;;;11.52;;
25049;SDS011;13046;49.814;9.918;2023-05-16T02:10:50;12.85;;;11.65;;
25049;SDS011;13046;49.814;9.918;2023-05-16T02:13:16;11.90;;;10.90;;
25049;SDS011;13046;49.814;9.918;2023-05-16T02:15:42;12.68;;;11.27;;
25049;SDS011;13046;49.814;9.918;2023-05-16T02:18:08;13.63;;;11.75;;
25049;SDS011;13046;49.814;9.918;2023-05-16T02:20:35;13.57;;;11.40;;
25049;SDS011;13046;49.814;9.918;2023-05-16T02:23:01;11.98;;;10.98;;
25049;SDS011;13046;49.814;9.918;2023-05-16T02:25:27;12.90;;;11.52;;
25049;SDS011;13046;49.814;9.918;2023-05-16T02:27:53;13.93;;;12.65;;
25049;SDS011;13046;49.814;9.918;2023-05-16T02:30:19;13.45;;;12.15;;
25049;SDS011;13046;49.814;9.918;2023-05-16T02:32:45;13.32;;;12.07;;
25049;SDS011;13046;49.814;9.918;2023-05-16T02:35:10;12.15;;;11.15;;
25049;SDS011;13046;49.814;9.918;2023-05-16T02:37:36;11.95;;;10.95;;
25049;SDS011;13046;49.814;9.918;2023-05-16T02:40:02;12.23;;;10.88;;
25049;SDS011;13046;49.814;9.918;2023-05-16T02:42:32;12.13;;;11.10;;
25049;SDS011;13046;49.814;9.918;2023-05-16T02:44:58;12.88;;;11.68;;
25049;SDS011;13046;49.814;9.918;2023-05-16T02:47:23;13.07;;;11.80;;
25049;SDS011;13046;49.814;9.918;2023-05-16T02:49:49;12.32;;;11.32;;
25049;SDS011;13046;49.814;9.918;2023-05-16T02:52:18;13.75;;;12.30;;
25049;SDS011;13046;49.814;9.918;2023-05-16T02:54:44;11.60;;;10.65;;
25049;SDS011;13046;49.814;9.918;2023-05-16T02:57:10;13.70;;;11.90;;
25049;SDS011;13046;49.814;9.918;2023-05-16T02:59:36;12.68;;;11.68;;
25049;SDS011;13046;49.814;9.918;2023-05-16T03:02:02;13.80;;;12.57;;
25049;SDS011;13046;49.814;9.918;2023-05-16T03:04:28;13.80;;;12.50;;
25049;SDS011;13046;49.814;9.918;2023-05-16T03:06:56;15.35;;;12.52;;
25049;SDS011;13046;49.814;9.918;2023-05-16T03:09:22;12.50;;;11.20;;
25049;SDS011;13046;49.814;9.918;2023-05-16T03:11:47;13.27;;;12.05;;
25049;SDS011;13046;49.814;9.918;2023-05-16T03:14:18;12.65;;;11.57;;
25049;SDS011;13046;49.814;9.918;2023-05-16T03:16:44;14.25;;;12.75;;
25049;SDS011;13046;49.814;9.918;2023-05-16T03:19:11;12.13;;;11.02;;
25049;SDS011;13046;49.814;9.918;2023-05-16T03:21:38;12.70;;;11.60;;
25049;SDS011;13046;49.814;9.918;2023-05-16T03:24:04;13.23;;;12.02;;
25049;SDS011;13046;49.814;9.918;2023-05-16T03:26:30;14.45;;;12.93;;
25049;SDS011;13046;49.814;9.918;2023-05-16T03:28:56;13.38;;;12.25;;
25049;SDS011;13046;49.814;9.918;2023-05-16T03:31:21;13.23;;;11.93;;
25049;SDS011;13046;49.814;9.918;2023-05-16T03:33:47;14.52;;;13.10;;
25049;SDS011;13046;49.814;9.918;2023-05-16T03:36:13;13.25;;;11.95;;
25049;SDS011;13046;49.814;9.918;2023-05-16T03:38:39;14.98;;;13.57;;
25049;SDS011;13046;49.814;9.918;2023-05-16T03:41:04;15.32;;;13.20;;
25049;SDS011;13046;49.814;9.918;2023-05-16T03:43:30;16.23;;;14.55;;
25049;SDS011;13046;49.814;9.918;2023-05-16T03:45:56;13.85;;;12.63;;
25049;SDS011;13046;49.814;9.918;2023-05-16T03:48:21;17.00;;;15.40;;
25049;SDS011;13046;49.814;9.918;2023-05-16T03:50:47;14.05;;;12.80;;
25049;SDS011;13046;49.814;9.918;2023-05-16T03:53:13;16.27;;;14.65;;
25049;SDS011;13046;49.814;9.918;2023-05-16T03:55:38;15.88;;;14.43;;
25049;SDS011;13046;49.814;9.918;2023-05-16T03:58:04;15.25;;;13.75;;
25049;SDS011;13046;49.814;9.918;2023-05-16T04:00:30;15.98;;;14.48;;
25049;SDS011;13046;49.814;9.918;2023-05-16T04:02:55;16.85;;;15.00;;
25049;SDS011;13046;49.814;9.918;2023-05-16T04:05:21;17.73;;;16.00;;
25049;SDS011;13046;49.814;9.918;2023-05-16T04:07:47;19.73;;;17.67;;
25049;SDS011;13046;49.814;9.918;2023-05-16T04:10:13;16.30;;;14.70;;
25049;SDS011;13046;49.814;9.918;2023-05-16T04:12:38;15.80;;;14.30;;
25049;SDS011;13046;49.814;9.918;2023-05-16T04:15:05;14.70;;;13.40;;
25049;SDS011;13046;49.814;9.918;2023-05-16T04:17:31;18.52;;;16.63;;
25049;SDS011;13046;49.814;9.918;2023-05-16T04:19:57;17.40;;;15.70;;
25049;SDS011;13046;49.814;9.918;2023-05-16T04:22:24;16.95;;;15.27;;
25049;SDS011;13046;49.814;9.918;2023-05-16T04:24:49;19.33;;;17.17;;
25049;SDS011;13046;49.814;9.918;2023-05-16T04:27:15;18.95;;;17.20;;
25049;SDS011;13046;49.814;9.918;2023-05-16T04:29:41;19.10;;;17.20;;
25049;SDS011;13046;49.814;9.918;2023-05-16T04:32:07;19.83;;;16.58;;
25049;SDS011;13046;49.814;9.918;2023-05-16T04:34:33;18.90;;;16.35;;
25049;SDS011;13046;49.814;9.918;2023-05-16T04:37:02;18.10;;;16.33;;
25049;SDS011;13046;49.814;9.918;2023-05-16T04:39:29;18.00;;;15.13;;
25049;SDS011;13046;49.814;9.918;2023-05-16T04:41:55;16.80;;;14.85;;
25049;SDS011;13046;49.814;9.918;2023-05-16T04:44:23;17.48;;;15.73;;
25049;SDS011;13046;49.814;9.918;2023-05-16T04:46:52;16.95;;;15.15;;
25049;SDS011;13046;49.814;9.918;2023-05-16T04:49:18;16.00;;;14.32;;
25049;SDS011;13046;49.814;9.918;2023-05-16T04:51:44;19.13;;;15.00;;
25049;SDS011;13046;49.814;9.918;2023-05-16T04:54:11;15.35;;;13.73;;
25049;SDS011;13046;49.814;9.918;2023-05-16T04:56:37;14.20;;;12.85;;
25049;SDS011;13046;49.814;9.918;2023-05-16T04:59:02;15.95;;;14.27;;
25049;SDS011;13046;49.814;9.918;2023-05-16T05:01:28;15.52;;;13.18;;
25049;SDS011;13046;49.814;9.918;2023-05-16T05:03:54;15.80;;;14.20;;
25049;SDS011;13046;49.814;9.918;2023-05-16T05:06:20;15.60;;;13.90;;
25049;SDS011;13046;49.814;9.918;2023-05-16T05:08:46;15.15;;;13.32;;
25049;SDS011;13046;49.814;9.918;2023-05-16T05:11:11;15.75;;;14.15;;
25049;SDS011;13046;49.814;9.918;2023-05-16T05:13:37;14.07;;;12.68;;
25049;SDS011;13046;49.814;9.918;2023-05-16T05:16:03;16.08;;;14.57;;
25049;SDS011;13046;49.814;9.918;2023-05-16T05:18:30;13.77;;;12.38;;
25049;SDS011;13046;49.814;9.918;2023-05-16T05:20:55;15.25;;;13.55;;
25049;SDS011;13046;49.814;9.918;2023-05-16T05:23:22;18.23;;;14.15;;
25049;SDS011;13046;49.814;9.918;2023-05-16T05:25:48;14.57;;;13.07;;
25049;SDS011;13046;49.814;9.918;2023-05-16T05:28:14;18.00;;;14.27;;
25049;SDS011;13046;49.814;9.918;2023-05-16T05:30:40;15.65;;;13.98;;
25049;SDS011;13046;49.814;9.918;2023-05-16T05:33:05;17.25;;;14.25;;
25049;SDS011;13046;49.814;9.918;2023-05-16T05:35:31;17.13;;;14.00;;
25049;SDS011;13046;49.814;9.918;2023-05-16T05:37:57;17.20;;;15.18;;
25049;SDS011;13046;49.814;9.918;2023-05-16T05:40:22;16.15;;;14.48;;
25049;SDS011;13046;49.814;9.918;2023-05-16T05:42:48;16.08;;;13.82;;
25049;SDS011;13046;49.814;9.918;2023-05-16T05:45:14;16.25;;;14.55;;
25049;SDS011;13046;49.814;9.918;2023-05-16T05:47:40;16.83;;;14.30;;
25049;SDS011;13046;49.814;9.918;2023-05-16T05:50:06;16.13;;;14.52;;
25049;SDS011;13046;49.814;9.918;2023-05-16T05:52:33;16.55;;;14.55;;
25049;SDS011;13046;49.814;9.918;2023-05-16T05:54:58;17.35;;;15.15;;
25049;SDS011;13046;49.814;9.918;2023-05-16T05:57:26;22.17;;;15.40;;
25049;SDS011;13046;49.814;9.918;2023-05-16T05:59:52;18.13;;;14.07;;
25049;SDS011;13046;49.814;9.918;2023-05-16T06:02:18;15.55;;;13.98;;
25049;SDS011;13046;49.814;9.918;2023-05-16T06:04:44;17.15;;;15.25;;
25049;SDS011;13046;49.814;9.918;2023-05-16T06:07:10;20.80;;;17.33;;
25049;SDS011;13046;49.814;9.918;2023-05-16T06:09:36;15.60;;;13.90;;
25049;SDS011;13046;49.814;9.918;2023-05-16T06:12:01;17.52;;;15.05;;
25049;SDS011;13046;49.814;9.918;2023-05-16T06:14:28;14.68;;;13.18;;
25049;SDS011;13046;49.814;9.918;2023-05-16T06:16:53;14.93;;;13.07;;
25049;SDS011;13046;49.814;9.918;2023-05-16T06:19:19;16.17;;;14.57;;
25049;SDS011;13046;49.814;9.918;2023-05-16T06:21:45;18.67;;;16.50;;
25049;SDS011;13046;49.814;9.918;2023-05-16T06:24:10;16.08;;;14.38;;
25049;SDS011;13046;49.814;9.918;2023-05-16T06:26:36;17.05;;;15.27;;
25049;SDS011;13046;49.814;9.918;2023-05-16T06:29:02;17.75;;;15.20;;
25049;SDS011;13046;49.814;9.918;2023-05-16T06:31:27;17.38;;;15.50;;
25049;SDS011;13046;49.814;9.918;2023-05-16T06:33:53;19.27;;;16.17;;
25049;SDS011;13046;49.814;9.918;2023-05-16T06:36:19;19.85;;;16.73;;
25049;SDS011;13046;49.814;9.918;2023-05-16T06:38:44;19.13;;;17.13;;
25049;SDS011;13046;49.814;9.918;2023-05-16T06:41:10;21.25;;;17.75;;
25049;SDS011;13046;49.814;9.918;2023-05-16T06:43:36;18.73;;;16.33;;
25049;SDS011;13046;49.814;9.918;2023-05-16T06:46:01;18.77;;;16.80;;
25049;SDS011;13046;49.814;9.918;2023-05-16T06:48:28;18.50;;;16.55;;
25049;SDS011;13046;49.814;9.918;2023-05-16T06:50:53;20.88;;;15.60;;
25049;SDS011;13046;49.814;9.918;2023-05-16T06:53:19;19.40;;;17.15;;
25049;SDS011;13046;49.814;9.918;2023-05-16T06:55:45;18.80;;;16.05;;
25049;SDS011;13046;49.814;9.918;2023-05-16T06:58:11;19.05;;;17.05;;
25049;SDS011;13046;49.814;9.918;2023-05-16T07:00:36;26.05;;;18.08;;
25049;SDS011;13046;49.814;9.918;2023-05-16T07:03:03;19.17;;;16.25;;
25049;SDS011;13046;49.814;9.918;2023-05-16T07:05:28;19.00;;;16.95;;
25049;SDS011;13046;49.814;9.918;2023-05-16T07:07:54;18.50;;;16.55;;
25049;SDS011;13046;49.814;9.918;2023-05-16T07:10:20;18.23;;;16.27;;
25049;SDS011;13046;49.814;9.918;2023-05-16T07:12:46;21.58;;;18.27;;
25049;SDS011;13046;49.814;9.918;2023-05-16T07:15:12;19.40;;;17.15;;
25049;SDS011;13046;49.814;9.918;2023-05-16T07:17:38;18.45;;;16.10;;
25049;SDS011;13046;49.814;9.918;2023-05-16T07:20:04;19.83;;;16.10;;
25049;SDS011;13046;49.814;9.918;2023-05-16T07:22:31;20.52;;;17.27;;
25049;SDS011;13046;49.814;9.918;2023-05-16T07:24:56;21.00;;;17.02;;
25049;SDS011;13046;49.814;9.918;2023-05-16T07:27:25;19.10;;;17.05;;
25049;SDS011;13046;49.814;9.918;2023-05-16T07:29:51;26.95;;;23.35;;
25049;SDS011;13046;49.814;9.918;2023-05-16T07:32:18;21.25;;;19.05;;
25049;SDS011;13046;49.814;9.918;2023-05-16T07:34:44;19.85;;;17.80;;
25049;SDS011;13046;49.814;9.918;2023-05-16T07:37:10;25.80;;;19.83;;
25049;SDS011;13046;49.814;9.918;2023-05-16T07:39:40;19.45;;;17.45;;
25049;SDS011;13046;49.814;9.918;2023-05-16T07:42:06;17.40;;;15.02;;
25049;SDS011;13046;49.814;9.918;2023-05-16T07:44:33;18.65;;;16.65;;
25049;SDS011;13046;49.814;9.918;2023-05-16T07:46:59;19.20;;;16.13;;
25049;SDS011;13046;49.814;9.918;2023-05-16T07:49:24;17.80;;;15.75;;
25049;SDS011;13046;49.814;9.918;2023-05-16T07:51:50;14.57;;;13.07;;
25049;SDS011;13046;49.814;9.918;2023-05-16T07:54:16;16.35;;;14.57;;
25049;SDS011;13046;49.814;9.918;2023-05-16T07:56:41;15.38;;;13.15;;
25049;SDS011;13046;49.814;9.918;2023-05-16T07:59:07;14.85;;;13.27;;
25049;SDS011;13046;49.814;9.918;2023-05-16T08:01:33;16.30;;;14.45;;
25049;SDS011;13046;49.814;9.918;2023-05-16T08:03:59;16.45;;;14.68;;
25049;SDS011;13046;49.814;9.918;2023-05-16T08:06:25;14.80;;;13.30;;
25049;SDS011;13046;49.814;9.918;2023-05-16T08:08:50;16.48;;;14.70;;
25049;SDS011;13046;49.814;9.918;2023-05-16T08:11:17;15.32;;;13.73;;
25049;SDS011;13046;49.814;9.918;2023-05-16T08:13:44;14.90;;;13.15;;
25049;SDS011;13046;49.814;9.918;2023-05-16T08:16:09;16.60;;;14.98;;
25049;SDS011;13046;49.814;9.918;2023-05-16T08:18:35;15.45;;;13.27;;
25049;SDS011;13046;49.814;9.918;2023-05-16T08:21:01;15.73;;;14.15;;
25049;SDS011;13046;49.814;9.918;2023-05-16T08:23:27;14.23;;;12.70;;
25049;SDS011;13046;49.814;9.918;2023-05-16T08:25:52;16.00;;;14.02;;
25049;SDS011;13046;49.814;9.918;2023-05-16T08:28:18;15.98;;;14.23;;
25049;SDS011;13046;49.814;9.918;2023-05-16T08:30:44;18.83;;;15.07;;
25049;SDS011;13046;49.814;9.918;2023-05-16T08:33:10;16.73;;;14.35;;
25049;SDS011;13046;49.814;9.918;2023-05-16T08:35:35;16.35;;;13.40;;
25049;SDS011;13046;49.814;9.918;2023-05-16T08:38:01;15.73;;;14.13;;
25049;SDS011;13046;49.814;9.918;2023-05-16T08:40:27;13.43;;;11.98;;
25049;SDS011;13046;49.814;9.918;2023-05-16T08:42:53;14.50;;;12.63;;
25049;SDS011;13046;49.814;9.918;2023-05-16T08:45:20;14.60;;;13.10;;
25049;SDS011;13046;49.814;9.918;2023-05-16T08:47:48;13.40;;;12.07;;
25049;SDS011;13046;49.814;9.918;2023-05-16T08:50:15;12.98;;;11.63;;
25049;SDS011;13046;49.814;9.918;2023-05-16T08:52:42;12.20;;;10.90;;
25049;SDS011;13046;49.814;9.918;2023-05-16T08:55:08;17.38;;;11.25;;
25049;SDS011;13046;49.814;9.918;2023-05-16T08:57:36;14.27;;;12.55;;
25049;SDS011;13046;49.814;9.918;2023-05-16T09:00:02;13.75;;;11.52;;
25049;SDS011;13046;49.814;9.918;2023-05-16T09:02:36;16.52;;;11.90;;
25049;SDS011;13046;49.814;9.918;2023-05-16T09:05:03;14.07;;;11.63;;
25049;SDS011;13046;49.814;9.918;2023-05-16T09:07:29;13.90;;;11.60;;
25049;SDS011;13046;49.814;9.918;2023-05-16T09:09:55;12.20;;;11.00;;
25049;SDS011;13046;49.814;9.918;2023-05-16T09:12:21;10.65;;;9.57;;
25049;SDS011;13046;49.814;9.918;2023-05-16T09:14:46;15.15;;;10.70;;
25049;SDS011;13046;49.814;9.918;2023-05-16T09:17:12;15.13;;;10.90;;
25049;SDS011;13046;49.814;9.918;2023-05-16T09:19:40;13.30;;;10.07;;
25049;SDS011;13046;49.814;9.918;2023-05-16T09:22:10;13.38;;;10.50;;
25049;SDS011;13046;49.814;9.918;2023-05-16T09:24:44;12.32;;;11.10;;
25049;SDS011;13046;49.814;9.918;2023-05-16T09:27:10;12.50;;;10.95;;
25049;SDS011;13046;49.814;9.918;2023-05-16T09:29:41;17.23;;;11.32;;
25049;SDS011;13046;49.814;9.918;2023-05-16T09:32:14;13.73;;;11.48;;
25049;SDS011;13046;49.814;9.918;2023-05-16T09:37:13;13.35;;;10.88;;
25049;SDS011;13046;49.814;9.918;2023-05-16T09:39:47;11.70;;;9.35;;
25049;SDS011;13046;49.814;9.918;2023-05-16T09:42:17;14.25;;;9.63;;
25049;SDS011;13046;49.814;9.918;2023-05-16T09:44:45;13.52;;;9.93;;
25049;SDS011;13046;49.814;9.918;2023-05-16T09:47:13;13.88;;;9.77;;
25049;SDS011;13046;49.814;9.918;2023-05-16T09:49:40;11.13;;;9.90;;
25049;SDS011;13046;49.814;9.918;2023-05-16T09:52:06;12.18;;;10.38;;
25049;SDS011;13046;49.814;9.918;2023-05-16T09:54:33;16.20;;;12.07;;
25049;SDS011;13046;49.814;9.918;2023-05-16T09:56:59;10.93;;;9.52;;
25049;SDS011;13046;49.814;9.918;2023-05-16T09:59:28;13.70;;;9.50;;
25049;SDS011;13046;49.814;9.918;2023-05-16T10:01:58;11.45;;;10.25;;
25049;SDS011;13046;49.814;9.918;2023-05-16T10:04:24;10.77;;;9.68;;
25049;SDS011;13046;49.814;9.918;2023-05-16T10:06:53;12.45;;;9.55;;
25049;SDS011;13046;49.814;9.918;2023-05-16T10:09:21;10.63;;;9.38;;
25049;SDS011;13046;49.814;9.918;2023-05-16T10:11:48;10.52;;;8.93;;
25049;SDS011;13046;49.814;9.918;2023-05-16T10:14:17;9.90;;;8.05;;
25049;SDS011;13046;49.814;9.918;2023-05-16T10:16:44;9.55;;;8.55;;
25049;SDS011;13046;49.814;9.918;2023-05-16T10:19:12;7.93;;;7.22;;
25049;SDS011;13046;49.814;9.918;2023-05-16T10:21:41;9.95;;;8.30;;
25049;SDS011;13046;49.814;9.918;2023-05-16T10:24:12;12.50;;;8.57;;
25049;SDS011;13046;49.814;9.918;2023-05-16T10:26:43;10.00;;;8.95;;
25049;SDS011;13046;49.814;9.918;2023-05-16T10:29:09;10.50;;;8.63;;
25049;SDS011;13046;49.814;9.918;2023-05-16T10:31:36;9.68;;;7.80;;
25049;SDS011;13046;49.814;9.918;2023-05-16T10:34:02;10.30;;;9.00;;
25049;SDS011;13046;49.814;9.918;2023-05-16T10:36:28;11.75;;;6.88;;
25049;SDS011;13046;49.814;9.918;2023-05-16T10:38:55;7.43;;;6.47;;
25049;SDS011;13046;49.814;9.918;2023-05-16T10:41:22;7.65;;;6.47;;
25049;SDS011;13046;49.814;9.918;2023-05-16T10:43:55;6.72;;;5.38;;
25049;SDS011;13046;49.814;9.918;2023-05-16T10:46:22;7.28;;;5.15;;
25049;SDS011;13046;49.814;9.918;2023-05-16T10:48:49;5.68;;;5.10;;
25049;SDS011;13046;49.814;9.918;2023-05-16T10:51:49;4.50;;;4.10;;
25049;SDS011;13046;49.814;9.918;2023-05-16T10:54:08;6.20;;;4.85;;
25049;SDS011;13046;49.814;9.918;2023-05-16T10:56:37;4.88;;;4.35;;
25049;SDS011;13046;49.814;9.918;2023-05-16T10:59:03;4.18;;;3.03;;
25049;SDS011;13046;49.814;9.918;2023-05-16T11:01:35;4.05;;;3.03;;
25049;SDS011;13046;49.814;9.918;2023-05-16T11:04:05;6.38;;;3.03;;
25049;SDS011;13046;49.814;9.918;2023-05-16T11:11:42;2.58;;;2.38;;
25049;SDS011;13046;49.814;9.918;2023-05-16T11:14:08;2.53;;;1.85;;
25049;SDS011;13046;49.814;9.918;2023-05-16T11:17:11;3.65;;;2.17;;
25049;SDS011;13046;49.814;9.918;2023-05-16T11:19:54;3.42;;;2.00;;
25049;SDS011;13046;49.814;9.918;2023-05-16T11:22:29;3.35;;;2.38;;
25049;SDS011;13046;49.814;9.918;2023-05-16T11:25:04;2.03;;;1.92;;
25049;SDS011;13046;49.814;9.918;2023-05-16T11:27:49;4.10;;;2.17;;
25049;SDS011;13046;49.814;9.918;2023-05-16T11:30:15;1.90;;;1.80;;
25049;SDS011;13046;49.814;9.918;2023-05-16T11:32:44;3.78;;;2.08;;
25049;SDS011;13046;49.814;9.918;2023-05-16T11:35:11;3.70;;;3.13;;
25049;SDS011;13046;49.814;9.918;2023-05-16T11:37:39;1.98;;;1.88;;
25049;SDS011;13046;49.814;9.918;2023-05-16T11:40:05;2.30;;;2.10;;
25049;SDS011;13046;49.814;9.918;2023-05-16T11:42:36;3.67;;;2.13;;
25049;SDS011;13046;49.814;9.918;2023-05-16T11:45:16;2.40;;;2.20;;
25049;SDS011;13046;49.814;9.918;2023-05-16T11:47:43;5.20;;;2.72;;
25049;SDS011;13046;49.814;9.918;2023-05-16T11:50:29;3.90;;;2.95;;
25049;SDS011;13046;49.814;9.918;2023-05-16T11:52:56;2.80;;;2.60;;
25049;SDS011;13046;49.814;9.918;2023-05-16T11:55:23;2.67;;;2.47;;
25049;SDS011;13046;49.814;9.918;2023-05-16T11:57:54;4.45;;;4.03;;
25049;SDS011;13046;49.814;9.918;2023-05-16T12:00:22;2.63;;;2.42;;
25049;SDS011;13046;49.814;9.918;2023-05-16T12:02:50;7.13;;;2.85;;
25049;SDS011;13046;49.814;9.918;2023-05-16T12:05:18;3.15;;;2.22;;
25049;SDS011;13046;49.814;9.918;2023-05-16T12:07:47;5.20;;;3.90;;
25049;SDS011;13046;49.814;9.918;2023-05-16T12:10:13;3.22;;;2.50;;
25049;SDS011;13046;49.814;9.918;2023-05-16T12:12:41;5.07;;;4.78;;
25049;SDS011;13046;49.814;9.918;2023-05-16T12:15:08;6.75;;;3.60;;
25049;SDS011;13046;49.814;9.918;2023-05-16T12:17:36;9.82;;;8.95;;
25049;SDS011;13046;49.814;9.918;2023-05-16T12:20:03;3.53;;;2.75;;
25049;SDS011;13046;49.814;9.918;2023-05-16T12:22:37;2.90;;;2.42;;
25049;SDS011;13046;49.814;9.918;2023-05-16T12:25:25;2.65;;;2.30;;
25049;SDS011;13046;49.814;9.918;2023-05-16T12:27:59;2.00;;;1.90;;
25049;SDS011;13046;49.814;9.918;2023-05-16T12:30:26;4.90;;;2.47;;
25049;SDS011;13046;49.814;9.918;2023-05-16T12:33:00;3.22;;;2.92;;
25049;SDS011;13046;49.814;9.918;2023-05-16T12:35:37;3.45;;;3.13;;
25049;SDS011;13046;49.814;9.918;2023-05-16T12:38:08;3.25;;;2.92;;
25049;SDS011;13046;49.814;9.918;2023-05-16T12:40:37;2.63;;;2.42;;
25049;SDS011;13046;49.814;9.918;2023-05-16T12:43:04;11.02;;;7.53;;
25049;SDS011;13046;49.814;9.918;2023-05-16T12:45:37;3.67;;;3.20;;
25049;SDS011;13046;49.814;9.918;2023-05-16T12:48:10;3.33;;;3.08;;
25049;SDS011;13046;49.814;9.918;2023-05-16T12:50:37;2.70;;;2.50;;
25049;SDS011;13046;49.814;9.918;2023-05-16T12:53:04;4.90;;;2.55;;
25049;SDS011;13046;49.814;9.918;2023-05-16T12:55:34;5.13;;;3.38;;
25049;SDS011;13046;49.814;9.918;2023-05-16T12:58:00;4.60;;;2.40;;
25049;SDS011;13046;49.814;9.918;2023-05-16T13:00:26;3.88;;;2.85;;
25049;SDS011;13046;49.814;9.918;2023-05-16T13:02:52;8.63;;;3.80;;
25049;SDS011;13046;49.814;9.918;2023-05-16T13:05:18;4.85;;;2.92;;
25049;SDS011;13046;49.814;9.918;2023-05-16T13:07:46;3.60;;;3.13;;
25049;SDS011;13046;49.814;9.918;2023-05-16T13:10:11;3.30;;;3.10;;
25049;SDS011;13046;49.814;9.918;2023-05-16T13:12:39;5.93;;;3.58;;
25049;SDS011;13046;49.814;9.918;2023-05-16T13:15:05;7.75;;;2.50;;
25049;SDS011;13046;49.814;9.918;2023-05-16T13:17:35;7.45;;;3.45;;
25049;SDS011;13046;49.814;9.918;2023-05-16T13:20:03;6.32;;;2.80;;
25049;SDS011;13046;49.814;9.918;2023-05-16T13:22:39;2.67;;;2.38;;
25049;SDS011;13046;49.814;9.918;2023-05-16T13:25:05;7.00;;;2.88;;
25049;SDS011;13046;49.814;9.918;2023-05-16T13:27:31;5.03;;;2.70;;
25049;SDS011;13046;49.814;9.918;2023-05-16T13:29:58;3.05;;;2.72;;
25049;SDS011;13046;49.814;9.918;2023-05-16T13:32:24;6.95;;;6.05;;
25049;SDS011;13046;49.814;9.918;2023-05-16T13:34:50;4.63;;;2.97;;
25049;SDS011;13046;49.814;9.918;2023-05-16T13:37:16;5.60;;;2.85;;
25049;SDS011;13046;49.814;9.918;2023-05-16T13:39:42;7.97;;;3.80;;
25049;SDS011;13046;49.814;9.918;2023-05-16T13:42:08;4.78;;;3.05;;
25049;SDS011;13046;49.814;9.918;2023-05-16T13:44:34;4.82;;;3.70;;
25049;SDS011;13046;49.814;9.918;2023-05-16T13:46:59;6.40;;;3.00;;
25049;SDS011;13046;49.814;9.918;2023-05-16T13:49:25;9.23;;;6.03;;
25049;SDS011;13046;49.814;9.918;2023-05-16T13:51:51;7.20;;;4.50;;
25049;SDS011;13046;49.814;9.918;2023-05-16T13:54:17;10.25;;;4.68;;
25049;SDS011;13046;49.814;9.918;2023-05-16T13:56:43;5.43;;;2.60;;
25049;SDS011;13046;49.814;9.918;2023-05-16T13:59:10;8.35;;;2.80;;
25049;SDS011;13046;49.814;9.918;2023-05-16T14:01:35;8.13;;;3.47;;
25049;SDS011;13046;49.814;9.918;2023-05-16T14:04:01;10.75;;;3.38;;
25049;SDS011;13046;49.814;9.918;2023-05-16T14:06:27;7.25;;;3.45;;
25049;SDS011;13046;49.814;9.918;2023-05-16T14:08:53;8.48;;;3.65;;
25049;SDS011;13046;49.814;9.918;2023-05-16T14:11:19;6.20;;;2.92;;
25049;SDS011;13046;49.814;9.918;2023-05-16T14:13:47;8.48;;;2.50;;
25049;SDS011;13046;49.814;9.918;2023-05-16T14:16:13;6.25;;;3.58;;
25049;SDS011;13046;49.814;9.918;2023-05-16T14:18:39;7.53;;;2.50;;
25049;SDS011;13046;49.814;9.918;2023-05-16T14:21:05;3.38;;;2.58;;
25049;SDS011;13046;49.814;9.918;2023-05-16T14:23:30;4.05;;;2.78;;
25049;SDS011;13046;49.814;9.918;2023-05-16T14:25:56;3.72;;;2.10;;
25049;SDS011;13046;49.814;9.918;2023-05-16T14:28:21;6.05;;;2.72;;
25049;SDS011;13046;49.814;9.918;2023-05-16T14:30:47;7.10;;;2.35;;
25049;SDS011;13046;49.814;9.918;2023-05-16T14:33:13;6.85;;;3.08;;
25049;SDS011;13046;49.814;9.918;2023-05-16T14:35:39;6.97;;;2.20;;
25049;SDS011;13046;49.814;9.918;2023-05-16T14:38:05;8.73;;;2.97;;
25049;SDS011;13046;49.814;9.918;2023-05-16T14:40:31;7.97;;;3.13;;
25049;SDS011;13046;49.814;9.918;2023-05-16T14:42:58;5.70;;;2.95;;
25049;SDS011;13046;49.814;9.918;2023-05-16T14:45:24;7.20;;;2.00;;
25049;SDS011;13046;49.814;9.918;2023-05-16T14:47:50;5.50;;;2.30;;
25049;SDS011;13046;49.814;9.918;2023-05-16T14:50:16;3.92;;;3.00;;
25049;SDS011;13046;49.814;9.918;2023-05-16T14:52:42;5.03;;;2.33;;